Latest Coastal Weather Observations for Taree Airport

IDN60701

Issued at 4:21 am EST Tuesday 16 July 2019 (issued every 10 minutes, with the page automatically refreshed every 10 minutes)

About coastal observations | Map of coastal stations | Coastal observations for NSW | Marine services | Other Formats
Station Details ID: 060141 Name: TAREE AIRPORT AWS Lat: -31.89 Lon: 152.51 Height: 8.0 m
Data from the previous 72 hours. | See also: Recent months at Taree Airport
Date/Time
EST
Wind Sea
Height
m
Swell Vis
km
Cloud Weather Temp
°C
Press
hPa
Rain since
9am
mm
Dir  Spd
kts
Gust
kts
Height
m
Period
s
Dir
16/04:00am N 3 4 - - - - 10 - - 2.0 1017.0 0.0
16/03:30am CALM 0 0 - - - - 10 - - 0.7 1017.3 0.0
16/03:18am WNW 2 6 - - - - 10 - - 2.2 1017.5 0.0
16/03:00am W 7 8 - - - - 10 - - 7.2 1017.6 0.0
16/02:30am W 5 6 - - - - 10 - - 5.9 1017.5 0.0
16/02:00am W 6 8 - - - - 10 - - 7.1 1018.0 0.0
16/01:30am W 5 6 - - - - 10 - - 7.2 1018.3 0.0
16/01:00am WNW 5 6 - - - - 10 - - 6.8 1018.5 0.0
16/12:30am NE 1 4 - - - - 10 - - 3.8 1018.8 0.0
16/12:00am W 6 8 - - - - 10 - - 6.9 1018.8 0.0
 
Date/Time
EST
Wind Sea
Height
m
Swell Vis
km
Cloud Weather Temp
°C
Press
hPa
Rain since
9am
mm
Dir  Spd
kts
Gust
kts
Height
m
Period
s
Dir
15/11:30pm WSW 8 8 - - - - 10 - - 6.8 1019.0 0.0
15/11:00pm WSW 9 10 - - - - 10 - - 7.2 1019.1 0.0
15/10:30pm NW 4 4 - - - - 10 - - 4.9 1019.2 0.0
15/10:00pm W 1 4 - - - - 10 - - 4.3 1019.3 0.0
15/09:30pm CALM 0 0 - - - - 10 - - 5.6 1019.0 0.0
15/09:00pm CALM 0 0 - - - - 10 - - 7.1 1019.0 0.0
15/08:30pm WSW 4 5 - - - - 10 - - 8.5 1018.8 0.0
15/08:00pm W 4 5 - - - - 10 - - 9.1 1018.7 0.0
15/07:30pm W 5 5 - - - - 10 - - 11.8 1018.7 0.0
15/07:00pm W 4 5 - - - - 10 - - 11.9 1018.5 0.0
15/06:30pm W 4 5 - - - - 10 - - 12.0 1018.2 0.0
15/06:00pm WSW 5 7 - - - - 10 - - 12.5 1017.9 0.0
15/05:30pm WSW 6 10 - - - - 10 Partly cloudy - 14.3 1017.6 0.0
15/05:00pm WSW 8 12 - - - - 10 Partly cloudy - 15.1 1017.4 0.0
15/04:30pm SW 11 17 - - - - 10 Partly cloudy - 15.9 1016.9 0.0
15/04:00pm SW 9 13 - - - - 10 Partly cloudy - 16.0 1016.6 0.0
15/03:30pm SW 13 19 - - - - 10 Partly cloudy - 15.7 1016.3 0.0
15/03:00pm SW 14 22 - - - - 10 Mostly cloudy - 16.9 1016.0 0.0
15/02:30pm SW 14 20 - - - - 10 Partly cloudy - 15.9 1016.0 0.0
15/02:00pm SW 13 19 - - - - 10 Cloudy - 16.5 1015.9 0.0
15/01:45pm SW 16 27 - - - - 10 Cloudy - 15.9 1015.7 0.0
15/01:30pm SW 16 25 - - - - 10 Cloudy - 16.1 1015.5 0.0
15/01:00pm SW 19 30 - - - - 10 Partly cloudy - 16.3 1015.1 0.0
15/12:45pm SW 18 28 - - - - 10 Partly cloudy - 16.6 1015.0 0.0
15/12:30pm SW 21 30 - - - - 10 Partly cloudy - 16.5 1015.1 0.0
15/12:05pm SW 18 28 - - - - 10 Partly cloudy - 16.3 1015.3 0.0
15/12:00pm SW 19 28 - - - - 10 Mostly clear - 16.3 1015.4 0.0
15/11:30am SW 18 26 - - - - 10 - - 16.5 1015.5 0.0
15/11:00am SW 19 25 - - - - 10 - - 16.4 1015.6 0.0
15/10:30am WSW 18 28 - - - - 10 - - 15.9 1015.6 0.0
15/10:12am WSW 15 25 - - - - 10 Partly cloudy - 16.0 1015.7 0.0
15/10:00am W 14 22 - - - - 10 - - 15.3 1015.9 0.0
15/09:30am W 13 21 - - - - 10 - - 14.5 1015.9 0.0
15/09:00am W 13 22 - - - - 10 - - 13.5 1015.1 0.0
15/08:30am W 13 19 - - - - 10 - - 13.2 1014.5 0.0
15/08:00am W 13 21 - - - - 10 - - 12.8 1014.2 0.0
15/07:30am W 13 22 - - - - 10 - - 11.8 1014.1 0.0
15/07:00am WNW 9 13 - - - - 10 - - 10.6 1014.1 0.0
15/06:30am WNW 14 19 - - - - 10 - - 10.6 1013.5 0.0
15/06:00am W 13 20 - - - - 10 - - 10.5 1013.0 0.0
15/05:30am W 15 21 - - - - 10 - - 10.6 1012.3 0.0
15/05:00am WNW 17 23 - - - - 10 - - 10.5 1011.6 0.0
15/04:30am NW 15 19 - - - - 10 - - 9.9 1011.9 0.0
15/04:00am WNW 13 17 - - - - 10 - - 9.5 1012.6 0.0
15/03:30am WNW 12 15 - - - - 10 - - 9.4 1013.4 0.0
15/03:00am WSW 7 10 - - - - 10 - - 9.4 1014.8 0.0
15/02:30am W 9 14 - - - - 10 - - 9.8 1015.0 0.0
15/02:00am WNW 11 16 - - - - 10 - - 10.2 1014.9 0.0
15/01:30am W 9 16 - - - - 10 - - 10.8 1014.6 0.0
15/01:00am W 7 11 - - - - 10 - - 10.6 1014.7 0.0
15/12:30am W 9 14 - - - - 10 - - 11.2 1015.2 0.0
15/12:00am WSW 7 10 - - - - 10 - - 10.8 1015.2 0.0
 
Date/Time
EST
Wind Sea
Height
m
Swell Vis
km
Cloud Weather Temp
°C
Press
hPa
Rain since
9am
mm
Dir  Spd
kts
Gust
kts
Height
m
Period
s
Dir
14/11:30pm W 8 12 - - - - 10 - - 11.5 1014.9 0.0
14/11:00pm WSW 6 12 - - - - 10 - - 12.0 1015.2 0.0
14/10:30pm WNW 11 17 - - - - 10 - - 11.6 1014.6 0.0
14/10:09pm NW 6 11 - - - - 10 - - 9.9 1014.9 0.0
14/10:00pm N 5 7 - - - - 10 - - 4.7 1015.1 0.0
14/09:30pm NW 3 4 - - - - 10 - - 8.8 1016.0 0.0
14/09:00pm WSW 4 4 - - - - 10 - - 9.7 1016.1 0.0
14/08:30pm SSW 4 6 - - - - 10 - - 7.5 1016.3 0.0
14/08:00pm SSW 3 4 - - - - 10 - - 7.9 1016.4 0.0
14/07:30pm NNW 4 6 - - - - 10 - - 10.2 1016.4 0.0
14/07:00pm N 3 4 - - - - 10 - - 10.1 1016.7 0.0
14/06:30pm NNW 4 5 - - - - 10 - - 11.4 1016.7 0.0
14/06:00pm NNW 4 7 - - - - 10 - - 12.2 1016.6 0.0
14/05:30pm NW 6 9 - - - - 10 - - 13.7 1016.5 0.0
14/05:00pm NW 8 10 - - - - 10 - - 14.6 1016.3 0.0
14/04:30pm WNW 8 13 - - - - 10 - - 15.7 1016.4 0.0
14/04:00pm W 8 13 - - - - 10 - - 16.6 1016.4 0.0
14/03:30pm W 10 15 - - - - 10 - - 16.6 1016.7 0.0
14/03:00pm W 9 15 - - - - 10 - - 16.3 1016.9 0.0
14/02:30pm W 9 13 - - - - 10 - - 16.3 1017.4 0.0
14/02:00pm W 10 15 - - - - 10 - - 15.6 1017.9 0.0
14/01:30pm W 10 17 - - - - 10 - - 15.5 1018.4 0.0
14/01:00pm W 12 21 - - - - 10 - - 14.9 1018.9 0.0
14/12:30pm WSW 9 15 - - - - 10 - - 14.2 1019.7 0.0
14/12:00pm WSW 9 13 - - - - 10 - - 14.1 1020.4 0.0
14/11:30am WSW 10 15 - - - - 10 - - 13.6 1021.1 0.0
14/11:00am WSW 8 14 - - - - 10 - - 13.2 1021.7 0.0
14/10:30am W 10 15 - - - - 10 - - 12.6 1022.1 0.0
14/10:00am W 10 15 - - - - 10 - - 12.3 1022.4 0.0
14/09:30am W 10 14 - - - - 10 - - 11.4 1022.6 0.0
14/09:00am W 7 9 - - - - 10 - - 10.3 1022.6 0.0
14/08:30am WSW 6 9 - - - - 10 - - 9.3 1022.6 0.0
14/08:00am W 5 8 - - - - 10 - - 8.2 1022.4 0.0
14/07:30am WSW 7 8 - - - - 10 - - 6.0 1022.1 0.0
14/07:00am WNW 7 8 - - - - 10 - - 5.9 1022.0 0.0
14/06:30am NW 5 7 - - - - 10 - - 5.3 1021.6 0.0
14/06:00am W 7 9 - - - - 10 - - 6.6 1021.3 0.0
14/05:30am W 7 9 - - - - 10 - - 6.4 1021.1 0.0
14/05:00am W 8 11 - - - - 10 - - 7.0 1020.9 0.0
14/04:30am NW 7 9 - - - - 10 - - 6.5 1020.8 0.0
14/04:00am WNW 8 12 - - - - 10 - - 7.6 1020.5 0.0
14/03:30am W 10 14 - - - - 10 - - 8.2 1020.5 0.0
14/03:00am CALM 0 0 - - - - 10 - - 6.6 1020.7 0.0
14/02:30am W 4 6 - - - - 10 - - 7.7 1020.4 0.0
14/02:00am WSW 8 11 - - - - 10 - - 8.3 1020.1 0.0
14/01:30am N 1 3 - - - - 10 - - 7.7 1020.4 0.0
14/01:00am W 6 10 - - - - 10 - - 9.0 1020.2 0.0
14/12:30am WSW 7 9 - - - - 10 - - 9.1 1020.2 0.0
14/12:00am W 8 10 - - - - 10 - - 9.6 1020.0 0.0
 
Date/Time
EST
Wind Sea
Height
m
Swell Vis
km
Cloud Weather Temp
°C
Press
hPa
Rain since
9am
mm
Dir  Spd
kts
Gust
kts
Height
m
Period
s
Dir
13/11:30pm W 11 15 - - - - 10 - - 10.4 1020.0 0.0
13/11:00pm W 9 14 - - - - 10 - - 10.6 1019.9 0.0
13/10:30pm W 9 14 - - - - 10 - - 10.8 1019.5 0.0
13/10:00pm WNW 11 17 - - - - 10 - - 10.9 1019.4 0.0
13/09:30pm W 9 13 - - - - 10 - - 10.9 1019.6 0.0
13/09:00pm W 9 13 - - - - 10 - - 11.2 1019.4 0.0
13/08:30pm W 12 18 - - - - 10 - - 11.8 1018.9 0.0
13/08:00pm W 10 16 - - - - 10 - - 11.9 1018.9 0.0
13/07:30pm W 11 16 - - - - 10 - - 12.1 1018.5 0.0
13/07:00pm W 10 18 - - - - 10 - - 12.4 1018.0 0.0
13/06:30pm W 9 16 - - - - 10 - - 12.9 1017.8 0.0
13/06:00pm W 13 20 - - - - 10 - - 13.1 1017.3 0.0
13/05:30pm W 15 22 - - - - 10 - - 13.8 1016.0 0.0
13/05:00pm W 15 22 - - - - 10 - - 14.2 1015.7 0.0
13/04:32pm W 16 26 - - - - 10 - - 14.9 1015.2 0.0
13/04:30pm W 17 26 - - - - 10 - - 15.0 1015.0 0.0
13/04:00pm W 15 29 - - - - 10 - - 15.5 1014.7 0.0
13/03:30pm W 17 27 - - - - 10 - - 16.1 1013.8 0.0
13/03:00pm W 20 31 - - - - 10 - - 16.3 1013.2 0.0
13/02:42pm WSW 17 27 - - - - 10 - - 16.3 1013.0 0.0
13/02:30pm WSW 18 27 - - - - 10 - - 16.7 1012.9 0.0
13/02:00pm W 18 28 - - - - 10 Partly cloudy - 17.0 1012.8 0.0
13/01:33pm WSW 17 27 - - - - 10 Partly cloudy - 16.7 1012.7 0.0
13/01:30pm WSW 16 23 - - - - 10 Partly cloudy - 17.0 1012.7 0.0
13/01:09pm W 16 26 - - - - 10 Partly cloudy - 16.7 1012.5 0.0
13/01:00pm W 18 26 - - - - 10 Partly cloudy - 16.2 1012.4 0.0
13/12:48pm WSW 16 26 - - - - 10 Partly cloudy - 16.4 1012.1 0.0
13/12:30pm WSW 17 23 - - - - 10 Partly cloudy - 16.7 1011.9 0.0
13/12:00pm W 18 28 - - - - 10 Mostly cloudy - 18.9 1011.8 0.0
13/11:30am W 17 28 - - - - 10 Partly cloudy - 19.3 1011.9 0.0
13/11:21am W 17 28 - - - - 10 - - 19.0 1011.9 0.0
13/11:00am W 16 22 - - - - 10 - - 19.0 1011.8 0.0
13/10:36am W 16 30 - - - - 10 - - 18.5 1012.0 0.0
13/10:30am W 14 22 - - - - 10 Partly cloudy - 17.8 1012.1 0.0
13/10:00am W 13 21 - - - - 10 Partly cloudy - 17.7 1012.5 0.0
13/09:30am W 9 16 - - - - 10 Partly cloudy - 17.8 1012.6 0.0
13/09:00am WNW 9 18 - - - - 10 Mostly clear - 17.4 1012.3 0.0
13/08:30am WNW 9 14 - - - - 10 Partly cloudy - 17.1 1012.5 0.0
13/08:00am WNW 6 11 - - - - 10 Partly cloudy - 16.7 1012.4 0.0
13/07:30am W 8 13 - - - - 10 Partly cloudy - 15.8 1012.1 0.0
13/07:00am WNW 8 10 - - - - 10 Partly cloudy - 15.5 1011.8 0.0
13/06:30am WNW 9 11 - - - - 10 Partly cloudy - 15.5 1011.5 0.0
13/06:00am WNW 9 15 - - - - 10 Mostly cloudy - 16.2 1011.1 0.0
13/05:30am WNW 9 13 - - - - 10 Partly cloudy - 16.3 1011.0 0.0
13/05:00am WNW 11 16 - - - - 10 Partly cloudy - 15.6 1010.8 0.0
13/04:43am NW 6 12 - - - - 10 Partly cloudy - 11.6 1010.7 0.0
13/04:30am WNW 3 5 - - - - 10 - - 6.4 1010.7 0.0

Other formats

Comma delimited format used in spreadsheet applications
http://www.bom.gov.au/fwo/IDN60701/IDN60701.95784.axf

JavaScript Object Notation format (JSON) in row-major order
http://www.bom.gov.au/fwo/IDN60701/IDN60701.95784.json

Data quality

Most of these data are generated automatically and are frequently updated. Quality checks on data are not normally performed. It is possible for incorrect values to appear. Refer to information at About Latest Weather Observations and please check the disclaimer before using these data.